createdAt,value
2017-12-11T00:02:15.182Z,1.70
2017-12-11T00:04:41.285Z,1.60
2017-12-11T00:07:07.429Z,2.57
2017-12-11T00:09:33.521Z,2.30
2017-12-11T00:11:59.634Z,4.50
2017-12-11T00:14:25.714Z,1.67
2017-12-11T00:16:51.746Z,2.37
2017-12-11T00:19:17.773Z,1.90
2017-12-11T00:21:43.886Z,1.63
2017-12-11T00:24:09.966Z,1.93
2017-12-11T00:26:36.082Z,1.30
2017-12-11T00:29:02.161Z,1.27
2017-12-11T00:31:28.209Z,1.00
2017-12-11T00:33:54.271Z,1.23
2017-12-11T00:36:20.341Z,1.10
2017-12-11T00:38:46.429Z,1.40
2017-12-11T00:41:12.503Z,1.80
2017-12-11T00:43:38.533Z,1.50
2017-12-11T00:46:04.610Z,1.47
2017-12-11T00:48:30.634Z,3.30
2017-12-11T00:50:56.634Z,1.40
2017-12-11T00:53:22.729Z,1.17
2017-12-11T00:55:48.808Z,1.30
2017-12-11T00:58:14.885Z,1.10
2017-12-11T01:00:40.964Z,1.40
2017-12-11T01:03:07.033Z,2.30
2017-12-11T01:05:33.069Z,1.20
2017-12-11T01:07:59.382Z,1.10
2017-12-11T01:10:25.421Z,1.00
2017-12-11T01:12:51.542Z,0.97
2017-12-11T01:15:18.211Z,0.97
2017-12-11T01:17:44.258Z,1.00
2017-12-11T01:20:11.575Z,1.07
2017-12-11T01:22:37.616Z,4.80
2017-12-11T01:25:04.146Z,1.83
2017-12-11T01:27:30.265Z,1.00
2017-12-11T01:29:56.620Z,3.83
2017-12-11T01:32:22.690Z,0.87
2017-12-11T01:34:48.782Z,2.47
2017-12-11T01:37:14.874Z,1.17
2017-12-11T01:39:40.930Z,2.17
2017-12-11T01:42:06.941Z,0.90
2017-12-11T01:44:32.978Z,0.93
2017-12-11T01:46:59.078Z,1.83
2017-12-11T01:49:25.106Z,1.17
2017-12-11T01:51:51.126Z,1.53
2017-12-11T01:54:17.094Z,1.63
2017-12-11T01:56:43.150Z,2.00
2017-12-11T01:59:09.246Z,1.00
2017-12-11T02:01:35.296Z,0.90
2017-12-11T02:04:01.361Z,1.10
2017-12-11T02:06:27.541Z,1.10
2017-12-11T02:08:53.558Z,0.80
2017-12-11T02:11:19.622Z,0.93
2017-12-11T02:13:45.768Z,1.10
2017-12-11T02:16:11.806Z,1.10
2017-12-11T02:18:37.945Z,1.73
2017-12-11T02:21:04.133Z,1.20
2017-12-11T02:23:30.194Z,1.27
2017-12-11T02:25:56.174Z,1.13
2017-12-11T02:28:22.249Z,1.20
2017-12-11T02:30:48.311Z,0.90
2017-12-11T02:33:14.368Z,1.10
2017-12-11T02:35:40.773Z,1.50
2017-12-11T02:38:06.817Z,4.00
2017-12-11T02:40:32.854Z,1.70
2017-12-11T02:42:58.883Z,2.20
2017-12-11T02:45:25.565Z,2.63
2017-12-11T02:47:51.670Z,1.57
2017-12-11T02:50:17.713Z,1.43
2017-12-11T02:52:43.790Z,3.23
2017-12-11T02:55:09.922Z,1.43
2017-12-11T02:57:36.053Z,1.50
2017-12-11T03:00:02.215Z,1.77
2017-12-11T03:02:28.322Z,2.47
2017-12-11T03:04:54.376Z,2.90
2017-12-11T03:07:20.955Z,1.63
2017-12-11T03:09:47.050Z,1.60
2017-12-11T03:12:13.134Z,1.90
2017-12-11T03:14:39.203Z,8.30
2017-12-11T03:17:05.207Z,2.17
2017-12-11T03:19:31.455Z,3.17
2017-12-11T03:21:57.529Z,1.60
2017-12-11T03:24:23.585Z,2.87
2017-12-11T03:26:49.646Z,1.77
2017-12-11T03:29:15.663Z,1.23
2017-12-11T03:31:41.665Z,1.97
2017-12-11T03:34:07.726Z,1.40
2017-12-11T03:36:33.781Z,1.77
2017-12-11T03:38:59.846Z,2.30
2017-12-11T03:41:25.964Z,2.00
2017-12-11T03:43:52.041Z,6.27
2017-12-11T03:46:18.126Z,1.60
2017-12-11T03:48:44.261Z,1.20
2017-12-11T03:51:10.320Z,1.33
2017-12-11T03:53:36.421Z,1.30
2017-12-11T03:56:02.476Z,2.43
2017-12-11T03:58:28.526Z,1.73
2017-12-11T04:00:54.605Z,2.07
2017-12-11T04:03:20.670Z,1.30
2017-12-11T04:05:46.725Z,1.80
2017-12-11T04:08:12.806Z,1.30
2017-12-11T04:10:38.941Z,1.60
2017-12-11T04:13:05.022Z,1.57
2017-12-11T04:15:31.109Z,1.80
2017-12-11T04:17:57.181Z,1.67
2017-12-11T04:20:23.247Z,1.30
2017-12-11T04:22:49.378Z,1.93
2017-12-11T04:25:15.481Z,1.37
2017-12-11T04:27:41.573Z,1.63
2017-12-11T04:30:07.665Z,1.73
2017-12-11T04:32:33.732Z,2.00
2017-12-11T04:34:59.925Z,2.13
2017-12-11T04:37:25.981Z,1.83
2017-12-11T04:39:52.058Z,1.60
2017-12-11T04:42:18.247Z,5.13
2017-12-11T04:44:44.334Z,4.60
2017-12-11T04:47:10.433Z,2.20
2017-12-11T04:49:36.546Z,2.50
2017-12-11T04:52:02.629Z,2.40
2017-12-11T04:54:28.730Z,2.27
2017-12-11T04:56:54.806Z,2.33
2017-12-11T04:59:20.894Z,2.47
2017-12-11T05:01:47.508Z,2.13
2017-12-11T05:04:13.814Z,2.00
2017-12-11T05:06:39.982Z,2.00
2017-12-11T05:09:06.150Z,3.20
2017-12-11T05:11:32.268Z,4.57
2017-12-11T05:13:58.428Z,3.53
2017-12-11T05:16:25.082Z,3.60
2017-12-11T05:18:51.210Z,3.97
2017-12-11T05:21:17.242Z,3.77
2017-12-11T05:23:43.334Z,3.43
2017-12-11T05:26:09.378Z,2.87
2017-12-11T05:28:35.497Z,3.70
2017-12-11T05:31:01.602Z,3.23
2017-12-11T05:33:27.714Z,3.60
2017-12-11T05:35:53.835Z,3.30
2017-12-11T05:38:19.850Z,10.30
2017-12-11T05:40:45.885Z,12.10
2017-12-11T05:43:12.046Z,8.93
2017-12-11T05:45:38.158Z,9.90
2017-12-11T05:48:04.931Z,7.73
2017-12-11T05:50:31.019Z,7.50
2017-12-11T05:52:57.111Z,6.73
2017-12-11T05:55:23.182Z,6.80
2017-12-11T05:57:49.336Z,7.57
2017-12-11T06:00:16.194Z,6.57
2017-12-11T06:02:42.262Z,7.23
2017-12-11T06:05:08.333Z,9.03
2017-12-11T06:07:34.437Z,11.07
2017-12-11T06:10:00.656Z,12.47
2017-12-11T06:12:26.753Z,12.87
2017-12-11T06:14:52.814Z,11.90
2017-12-11T06:17:18.884Z,10.27
2017-12-11T06:19:44.965Z,10.63
2017-12-11T06:22:11.018Z,21.97
2017-12-11T06:24:37.351Z,19.63
2017-12-11T06:27:03.401Z,29.90
2017-12-11T06:29:29.406Z,14.87
2017-12-11T06:31:55.474Z,14.30
2017-12-11T06:34:21.565Z,11.50
2017-12-11T06:36:47.687Z,10.60
2017-12-11T06:39:13.770Z,18.43
2017-12-11T06:41:39.873Z,18.27
2017-12-11T06:44:05.934Z,25.57
2017-12-11T06:46:32.007Z,21.60
2017-12-11T06:48:58.145Z,16.13
2017-12-11T06:51:24.206Z,11.43
2017-12-11T06:53:50.285Z,13.07
2017-12-11T06:56:16.366Z,12.20
2017-12-11T06:58:42.464Z,14.47
2017-12-11T07:01:08.506Z,10.10
2017-12-11T07:03:34.681Z,16.03
2017-12-11T07:06:00.729Z,13.40
2017-12-11T07:08:26.813Z,12.30
2017-12-11T07:10:52.905Z,10.57
2017-12-11T07:13:18.961Z,10.83
2017-12-11T07:15:45.051Z,13.10
2017-12-11T07:18:11.106Z,12.47
2017-12-11T07:20:37.189Z,13.73
2017-12-11T07:23:03.269Z,15.63
2017-12-11T07:25:29.354Z,18.73
2017-12-11T07:27:55.397Z,21.70
2017-12-11T07:30:21.477Z,22.27
2017-12-11T07:32:47.589Z,18.97
2017-12-11T07:35:13.652Z,17.90
2017-12-11T07:37:39.666Z,17.43
2017-12-11T07:40:05.733Z,17.40
2017-12-11T07:42:31.901Z,23.87
2017-12-11T07:44:57.969Z,17.60
2017-12-11T07:47:24.038Z,21.70
2017-12-11T07:49:50.171Z,21.47
2017-12-11T07:52:16.299Z,16.40
2017-12-11T07:54:42.426Z,17.60
2017-12-11T07:57:08.505Z,17.03
2017-12-11T07:59:34.581Z,14.80
2017-12-11T08:02:00.658Z,15.70
2017-12-11T08:04:26.725Z,15.03
2017-12-11T08:06:52.896Z,14.70
2017-12-11T08:09:19.010Z,17.57
2017-12-11T08:11:45.067Z,16.20
2017-12-11T08:14:11.210Z,23.23
2017-12-11T08:16:37.342Z,19.67
2017-12-11T08:19:03.396Z,23.53
2017-12-11T08:21:29.448Z,25.60
2017-12-11T08:23:55.502Z,32.93
2017-12-11T08:26:21.581Z,23.63
2017-12-11T08:28:47.646Z,21.80
2017-12-11T08:31:13.734Z,17.43
2017-12-11T08:33:39.732Z,15.40
2017-12-11T08:36:05.786Z,18.80
2017-12-11T08:38:31.973Z,17.20
2017-12-11T08:40:58.029Z,19.30
2017-12-11T08:43:24.090Z,17.63
2017-12-11T08:45:50.141Z,15.93
2017-12-11T08:48:16.313Z,17.90
2017-12-11T08:50:42.390Z,15.63
2017-12-11T08:53:08.855Z,23.17
2017-12-11T08:55:34.911Z,20.70
2017-12-11T08:58:00.974Z,13.93
2017-12-11T09:00:27.011Z,17.10
2017-12-11T09:02:53.073Z,20.33
2017-12-11T09:05:19.170Z,18.17
2017-12-11T09:07:45.247Z,20.77
2017-12-11T09:10:11.382Z,22.77
2017-12-11T09:12:37.439Z,19.80
2017-12-11T09:15:03.741Z,16.63
2017-12-11T09:17:29.822Z,17.53
2017-12-11T09:19:55.921Z,16.97
2017-12-11T09:22:21.995Z,16.33
2017-12-11T09:24:48.046Z,21.70
2017-12-11T09:27:15.507Z,17.63
2017-12-11T09:29:41.573Z,16.27
2017-12-11T09:32:07.746Z,15.60
2017-12-11T09:34:33.889Z,22.50
2017-12-11T09:36:59.975Z,14.07
2017-12-11T09:39:26.057Z,16.73
2017-12-11T09:41:52.066Z,18.53
2017-12-11T09:44:18.058Z,14.33
2017-12-11T09:46:44.179Z,11.40
2017-12-11T09:49:11.033Z,21.40
2017-12-11T09:51:37.106Z,15.37
2017-12-11T09:54:03.223Z,12.73
2017-12-11T09:56:29.313Z,13.10
2017-12-11T09:58:55.413Z,12.20
2017-12-11T10:01:21.490Z,16.20
2017-12-11T10:03:47.578Z,15.17
2017-12-11T10:06:13.650Z,13.23
2017-12-11T10:08:39.815Z,16.27
2017-12-11T10:11:05.866Z,15.07
2017-12-11T10:13:31.958Z,14.37
2017-12-11T10:15:58.018Z,14.13
2017-12-11T10:18:24.137Z,16.97
2017-12-11T10:20:50.207Z,17.83
2017-12-11T10:23:16.297Z,25.87
2017-12-11T10:25:42.354Z,23.00
2017-12-11T10:28:08.402Z,23.73
2017-12-11T10:30:34.434Z,19.17
2017-12-11T10:33:00.454Z,21.70
2017-12-11T10:35:26.545Z,20.57
2017-12-11T10:37:52.591Z,25.00
2017-12-11T10:40:18.702Z,21.50
2017-12-11T10:42:44.837Z,20.27
2017-12-11T10:45:10.933Z,16.60
2017-12-11T10:47:37.036Z,18.10
2017-12-11T10:50:03.362Z,17.00
2017-12-11T10:52:29.467Z,13.10
2017-12-11T10:54:55.537Z,14.30
2017-12-11T10:57:21.627Z,13.57
2017-12-11T10:59:47.694Z,14.30
2017-12-11T11:02:13.794Z,15.80
2017-12-11T11:04:39.858Z,14.53
2017-12-11T11:07:05.947Z,14.33
2017-12-11T11:09:32.310Z,13.10
2017-12-11T11:11:58.482Z,18.67
2017-12-11T11:14:24.566Z,15.33
2017-12-11T11:16:50.698Z,12.23
2017-12-11T11:19:16.799Z,9.33
2017-12-11T11:21:42.858Z,11.37
2017-12-11T11:24:08.942Z,10.67
2017-12-11T11:26:34.987Z,9.80
2017-12-11T11:29:01.068Z,15.73
2017-12-11T11:31:27.130Z,26.90
2017-12-11T11:33:53.212Z,38.37
2017-12-11T11:36:19.257Z,27.43
2017-12-11T11:38:45.326Z,21.00
2017-12-11T11:41:11.390Z,15.40
2017-12-11T11:43:37.467Z,13.00
2017-12-11T11:46:03.550Z,13.90
2017-12-11T11:48:29.644Z,13.23
2017-12-11T11:50:55.730Z,20.63
2017-12-11T11:53:21.755Z,23.47
2017-12-11T11:55:47.836Z,17.37
2017-12-11T11:58:13.897Z,20.97
2017-12-11T12:00:40.114Z,18.13
2017-12-11T12:03:06.138Z,18.70
2017-12-11T12:05:33.245Z,21.70
2017-12-11T12:07:59.321Z,17.20
2017-12-11T12:10:25.418Z,15.90
2017-12-11T12:12:51.520Z,16.47
2017-12-11T12:15:17.597Z,14.33
2017-12-11T12:17:43.665Z,10.87
2017-12-11T12:20:09.705Z,10.30
2017-12-11T12:22:35.797Z,10.63
2017-12-11T12:25:01.938Z,14.43
2017-12-11T12:27:28.066Z,13.40
2017-12-11T12:29:54.191Z,14.97
2017-12-11T12:32:20.272Z,18.10
2017-12-11T12:34:46.393Z,14.83
2017-12-11T12:37:12.666Z,12.70
2017-12-11T12:39:38.802Z,10.10
2017-12-11T12:42:04.885Z,9.00
2017-12-11T12:44:30.989Z,8.33
2017-12-11T12:46:57.034Z,8.67
2017-12-11T12:49:23.117Z,6.30
2017-12-11T12:51:49.102Z,6.40
2017-12-11T12:54:15.110Z,8.53
2017-12-11T12:56:41.187Z,12.20
2017-12-11T12:59:07.210Z,7.20
2017-12-11T13:01:33.281Z,10.80
2017-12-11T13:03:59.340Z,7.63
2017-12-11T13:06:25.466Z,8.60
2017-12-11T13:08:51.507Z,6.83
2017-12-11T13:11:17.622Z,13.27
2017-12-11T13:13:43.680Z,8.43
2017-12-11T13:16:09.758Z,8.30
2017-12-11T13:18:35.886Z,8.87
2017-12-11T13:21:01.966Z,24.83
2017-12-11T13:23:28.054Z,12.37
2017-12-11T13:25:54.138Z,12.83
2017-12-11T13:28:20.227Z,13.40
2017-12-11T13:30:46.267Z,14.90
2017-12-11T13:33:12.426Z,14.73
2017-12-11T13:35:38.493Z,18.53
2017-12-11T13:38:04.547Z,23.70
2017-12-11T13:40:30.703Z,22.07
2017-12-11T13:42:56.725Z,35.57
2017-12-11T13:45:22.947Z,35.77
2017-12-11T13:47:49.106Z,68.43
2017-12-11T13:50:15.202Z,351.10
2017-12-11T13:52:41.287Z,54.80
2017-12-11T13:55:07.377Z,60.00
2017-12-11T13:57:33.460Z,46.10
2017-12-11T13:59:59.538Z,36.03
2017-12-11T14:02:25.646Z,32.40
2017-12-11T14:04:51.731Z,24.87
2017-12-11T14:07:17.822Z,50.47
2017-12-11T14:09:43.914Z,35.43
2017-12-11T14:12:10.022Z,30.40
2017-12-11T14:14:36.144Z,31.53
2017-12-11T14:17:02.234Z,22.00
2017-12-11T14:19:28.315Z,22.30
2017-12-11T14:21:54.457Z,45.53
2017-12-11T14:24:20.559Z,48.40
2017-12-11T14:26:46.590Z,36.63
2017-12-11T14:29:12.653Z,22.03
2017-12-11T14:31:38.767Z,20.97
2017-12-11T14:34:04.862Z,15.40
2017-12-11T14:36:30.910Z,14.23
2017-12-11T14:38:56.978Z,10.13
2017-12-11T14:41:23.093Z,7.67
2017-12-11T14:43:49.162Z,7.63
2017-12-11T14:46:15.185Z,7.27
2017-12-11T14:48:41.310Z,7.80
2017-12-11T14:51:07.346Z,7.83
2017-12-11T14:53:33.438Z,11.63
2017-12-11T14:55:59.447Z,6.90
2017-12-11T14:58:25.537Z,5.83
2017-12-11T15:00:51.662Z,8.37
2017-12-11T15:03:17.833Z,8.73
2017-12-11T15:05:43.893Z,10.50
2017-12-11T15:08:09.937Z,11.93
2017-12-11T15:10:36.106Z,14.33
2017-12-11T15:13:02.191Z,11.40
2017-12-11T15:15:28.275Z,12.83
2017-12-11T15:17:54.325Z,20.90
2017-12-11T15:20:20.402Z,19.13
2017-12-11T15:22:46.436Z,18.20
2017-12-11T15:25:12.554Z,23.50
2017-12-11T15:27:38.622Z,24.17
2017-12-11T15:30:04.773Z,26.00
2017-12-11T15:32:30.848Z,31.27
2017-12-11T15:34:56.964Z,23.40
2017-12-11T15:37:23.056Z,20.40
2017-12-11T15:39:49.124Z,21.80
2017-12-11T15:42:15.334Z,16.37
2017-12-11T15:44:41.394Z,17.33
2017-12-11T15:47:07.470Z,19.33
2017-12-11T15:49:34.190Z,11.57
2017-12-11T15:52:00.264Z,15.33
2017-12-11T15:54:26.426Z,17.17
2017-12-11T15:56:52.512Z,13.33
2017-12-11T15:59:18.610Z,10.20
2017-12-11T16:01:44.742Z,8.20
2017-12-11T16:04:10.907Z,8.83
2017-12-11T16:06:36.994Z,11.43
2017-12-11T16:09:03.556Z,11.33
2017-12-11T16:11:29.674Z,11.63
2017-12-11T16:13:55.726Z,12.43
2017-12-11T16:16:21.847Z,9.93
2017-12-11T16:18:47.957Z,10.70
2017-12-11T16:21:14.321Z,9.23
2017-12-11T16:23:40.399Z,6.20
2017-12-11T16:26:06.574Z,6.73
2017-12-11T16:28:32.664Z,6.13
2017-12-11T16:30:58.844Z,6.00
2017-12-11T16:33:24.906Z,5.50
2017-12-11T16:35:50.998Z,5.93
2017-12-11T16:38:17.167Z,7.17
2017-12-11T16:40:43.971Z,11.10
2017-12-11T16:43:20.129Z,11.47
2017-12-11T16:45:46.215Z,9.40
2017-12-11T16:48:12.311Z,11.30
2017-12-11T16:50:38.401Z,12.13
2017-12-11T16:53:04.550Z,20.87
2017-12-11T16:55:30.635Z,13.93
2017-12-11T16:57:56.714Z,16.07
2017-12-11T17:00:22.799Z,15.87
2017-12-11T17:02:48.879Z,28.77
2017-12-11T17:05:14.915Z,21.10
2017-12-11T17:07:40.961Z,21.57
2017-12-11T17:10:07.111Z,18.23
2017-12-11T17:12:33.186Z,22.23
2017-12-11T17:14:59.306Z,26.80
2017-12-11T17:17:25.372Z,33.43
2017-12-11T17:19:51.487Z,29.30
2017-12-11T17:22:17.599Z,28.80
2017-12-11T17:24:43.724Z,30.83
2017-12-11T17:27:09.869Z,45.27
2017-12-11T17:29:35.990Z,43.07
2017-12-11T17:32:02.152Z,42.00
2017-12-11T17:34:28.208Z,40.57
2017-12-11T17:36:54.308Z,41.57
2017-12-11T17:39:20.437Z,49.83
2017-12-11T17:41:46.558Z,49.67
2017-12-11T17:44:12.719Z,50.53
2017-12-11T17:46:38.834Z,35.77
2017-12-11T17:49:04.971Z,37.27
2017-12-11T17:51:31.075Z,40.03
2017-12-11T17:53:57.193Z,46.77
2017-12-11T17:56:23.366Z,47.73
2017-12-11T17:58:49.485Z,56.37
2017-12-11T18:01:15.582Z,64.40
2017-12-11T18:03:41.678Z,50.07
2017-12-11T18:06:07.818Z,49.97
2017-12-11T18:08:33.945Z,45.80
2017-12-11T18:11:00.040Z,40.60
2017-12-11T18:13:26.178Z,54.23
2017-12-11T18:15:52.270Z,44.63
2017-12-11T18:18:18.407Z,47.40
2017-12-11T18:20:44.502Z,46.07
2017-12-11T18:23:10.613Z,51.70
2017-12-11T18:25:36.847Z,61.00
2017-12-11T18:28:02.958Z,59.03
2017-12-11T18:30:29.038Z,50.60
2017-12-11T18:32:55.225Z,44.70
2017-12-11T18:35:21.349Z,50.50
2017-12-11T18:37:47.471Z,44.97
2017-12-11T18:40:13.558Z,53.50
2017-12-11T18:42:39.667Z,42.70
2017-12-11T18:45:05.765Z,58.57
2017-12-11T18:47:32.477Z,55.37
2017-12-11T18:49:58.583Z,41.57
2017-12-11T18:52:24.810Z,54.30
2017-12-11T18:54:50.840Z,50.93
2017-12-11T18:57:16.958Z,39.33
2017-12-11T18:59:43.100Z,31.70
2017-12-11T19:02:09.157Z,37.90
2017-12-11T19:04:35.269Z,38.83
2017-12-11T19:07:01.361Z,36.77
2017-12-11T19:09:27.486Z,24.33
2017-12-11T19:11:53.562Z,28.37
2017-12-11T19:14:19.726Z,33.23
2017-12-11T19:16:45.871Z,36.77
2017-12-11T19:19:12.022Z,37.97
2017-12-11T19:21:38.142Z,29.17
2017-12-11T19:24:04.314Z,26.60
2017-12-11T19:26:30.403Z,28.00
2017-12-11T19:28:56.632Z,21.27
2017-12-11T19:31:22.764Z,32.27
2017-12-11T19:33:48.950Z,43.57
2017-12-11T19:36:15.186Z,38.53
2017-12-11T19:38:41.283Z,40.93
2017-12-11T19:41:07.385Z,34.80
2017-12-11T19:43:33.606Z,37.27
2017-12-11T19:45:59.760Z,37.50
2017-12-11T19:48:27.114Z,36.80
2017-12-11T19:51:08.153Z,42.50
2017-12-11T19:53:34.379Z,42.20
2017-12-11T19:56:00.486Z,40.20
2017-12-11T19:58:26.641Z,46.30
2017-12-11T20:00:52.739Z,48.10
2017-12-11T20:03:18.842Z,41.03
2017-12-11T20:05:45.067Z,37.90
2017-12-11T20:08:11.222Z,34.70
2017-12-11T20:10:37.336Z,37.57
2017-12-11T20:13:03.442Z,40.40
2017-12-11T20:15:29.557Z,33.67
2017-12-11T20:17:55.627Z,40.43
2017-12-11T20:20:21.812Z,42.33
2017-12-11T20:22:47.910Z,43.83
2017-12-11T20:25:13.989Z,43.33
2017-12-11T20:27:40.056Z,38.07
2017-12-11T20:30:06.148Z,34.30
2017-12-11T20:32:32.259Z,33.37
2017-12-11T20:34:58.368Z,35.07
2017-12-11T20:37:24.486Z,36.07
2017-12-11T20:39:50.639Z,30.80
2017-12-11T20:42:16.733Z,35.17
2017-12-11T20:44:42.821Z,38.83
2017-12-11T20:47:08.952Z,36.10
2017-12-11T20:49:35.459Z,25.47
2017-12-11T20:52:01.523Z,25.67
2017-12-11T20:54:28.249Z,24.33
2017-12-11T20:56:54.391Z,27.10
2017-12-11T20:59:20.511Z,30.70
2017-12-11T21:01:46.595Z,34.27
2017-12-11T21:04:12.686Z,35.57
2017-12-11T21:06:38.787Z,32.47
2017-12-11T21:09:04.897Z,32.20
2017-12-11T21:11:31.083Z,41.93
2017-12-11T21:13:57.205Z,62.73
2017-12-11T21:16:24.121Z,68.03
2017-12-11T21:18:50.205Z,82.60
2017-12-11T21:21:16.321Z,63.63
2017-12-11T21:23:42.441Z,78.23
2017-12-11T21:26:08.542Z,38.30
2017-12-11T21:28:34.622Z,41.30
2017-12-11T21:31:00.750Z,33.73
2017-12-11T21:33:26.864Z,33.40
2017-12-11T21:35:52.981Z,25.63
2017-12-11T21:38:19.105Z,27.07
2017-12-11T21:40:45.234Z,24.27
2017-12-11T21:43:11.325Z,19.63
2017-12-11T21:45:37.433Z,18.00
2017-12-11T21:48:03.562Z,23.30
2017-12-11T21:50:29.656Z,19.47
2017-12-11T21:52:55.731Z,19.63
2017-12-11T21:55:21.810Z,24.10
2017-12-11T21:57:47.937Z,20.37
2017-12-11T22:00:14.043Z,24.00
2017-12-11T22:02:40.125Z,19.90
2017-12-11T22:05:06.139Z,18.73
2017-12-11T22:07:32.271Z,26.63
2017-12-11T22:09:58.341Z,23.67
2017-12-11T22:12:24.486Z,27.30
2017-12-11T22:14:50.589Z,17.00
2017-12-11T22:17:16.661Z,20.50
2017-12-11T22:19:42.782Z,16.27
2017-12-11T22:22:08.838Z,15.40
2017-12-11T22:24:34.981Z,17.23
2017-12-11T22:27:01.070Z,14.80
2017-12-11T22:29:27.294Z,13.10
2017-12-11T22:31:53.297Z,9.20
2017-12-11T22:34:19.427Z,10.47
2017-12-11T22:36:45.490Z,9.80
2017-12-11T22:39:11.482Z,10.10
2017-12-11T22:41:37.573Z,8.90
2017-12-11T22:44:03.702Z,8.60
2017-12-11T22:46:29.766Z,7.40
2017-12-11T22:48:55.902Z,9.20
2017-12-11T22:51:21.969Z,10.20
2017-12-11T22:53:48.065Z,9.40
2017-12-11T22:56:14.130Z,10.43
2017-12-11T22:58:40.263Z,8.00
2017-12-11T23:01:06.334Z,7.67
2017-12-11T23:03:32.416Z,8.07
2017-12-11T23:05:58.525Z,8.57
2017-12-11T23:08:24.638Z,6.93
2017-12-11T23:10:50.723Z,7.13
2017-12-11T23:13:16.866Z,8.47
2017-12-11T23:15:42.945Z,8.33
2017-12-11T23:18:09.050Z,6.93
2017-12-11T23:20:35.134Z,8.47
2017-12-11T23:23:01.207Z,7.50
2017-12-11T23:25:27.240Z,9.10
2017-12-11T23:27:53.313Z,8.17
2017-12-11T23:30:19.358Z,9.27
2017-12-11T23:32:45.458Z,8.57
2017-12-11T23:35:11.569Z,10.07
2017-12-11T23:37:37.611Z,10.20
2017-12-11T23:40:03.958Z,8.10
2017-12-11T23:42:29.974Z,10.30
2017-12-11T23:44:56.088Z,8.80
2017-12-11T23:47:22.192Z,7.70
2017-12-11T23:49:48.243Z,9.73
2017-12-11T23:52:14.345Z,9.83
2017-12-11T23:54:40.501Z,8.83
2017-12-11T23:57:06.578Z,8.17
2017-12-11T23:59:32.695Z,8.17
